Time;durP1;ratioP1;P1;durP2;ratioP2;P2;SDS_P1;SDS_P2;PMS_P1;PMS_P2;Temp;Humidity;BMP_temperature;BMP_pressure;BME280_temperature;BME280_humidity;BME280_pressure;Samples;Min_cycle;Max_cycle;Signal;HPM_P1;HPM_P2
2023/01/25 04:02:40;;;;;;;61.58;27.05;;;0.20;99.90;;;;;;6277002;22;20019;-76
2023/01/25 04:05:06;;;;;;;59.08;27.80;;;0.20;99.90;;;;;;6250910;22;20310;-74
2023/01/25 04:07:34;;;;;;;61.78;28.05;;;0.20;99.90;;;;;;6250441;22;20019;-75
2023/01/25 04:10:00;;;;;;;58.60;27.73;;;0.20;99.90;;;;;;6249805;22;20008;-76
2023/01/25 04:12:25;;;;;;;61.72;27.48;;;0.20;99.90;;;;;;6247597;22;20513;-75
2023/01/25 04:14:54;;;;;;;59.97;28.77;;;0.20;99.90;;;;;;6277218;22;20015;-76
2023/01/25 04:17:19;;;;;;;58.92;26.92;;;0.20;99.90;;;;;;6275167;22;20015;-76
2023/01/25 04:19:45;;;;;;;62.50;28.40;;;0.20;99.90;;;;;;6275240;22;20085;-75
2023/01/25 04:22:11;;;;;;;58.35;26.27;;;0.10;99.90;;;;;;6274971;22;20015;-74
2023/01/25 04:24:37;;;;;;;58.80;27.13;;;0.10;99.90;;;;;;6275256;22;20015;-75
2023/01/25 04:27:03;;;;;;;58.30;26.40;;;0.10;99.90;;;;;;6249670;22;20441;-76
2023/01/25 04:29:29;;;;;;;56.63;27.02;;;0.00;99.90;;;;;;6277253;22;20366;-76
2023/01/25 04:31:55;;;;;;;56.10;26.40;;;0.00;99.90;;;;;;6275253;22;20092;-74
2023/01/25 04:34:20;;;;;;;56.15;26.95;;;0.00;99.90;;;;;;6277102;22;20126;-75
2023/01/25 04:36:46;;;;;;;57.95;25.65;;;0.00;99.90;;;;;;6276740;22;20066;-78
2023/01/25 04:39:12;;;;;;;56.95;26.38;;;0.00;99.90;;;;;;6277135;22;20337;-76
2023/01/25 04:41:37;;;;;;;64.47;28.20;;;0.00;99.90;;;;;;6276782;22;20019;-77
2023/01/25 04:44:03;;;;;;;59.03;27.27;;;0.00;99.90;;;;;;6275022;22;20019;-74
2023/01/25 04:46:28;;;;;;;58.22;26.90;;;0.10;99.90;;;;;;6276980;22;20011;-76
2023/01/25 04:48:54;;;;;;;55.75;26.23;;;0.10;99.90;;;;;;6275084;22;20040;-75
2023/01/25 04:51:20;;;;;;;56.17;26.70;;;0.10;99.90;;;;;;6275096;22;20058;-75
2023/01/25 04:53:45;;;;;;;59.03;26.40;;;0.10;99.90;;;;;;6275908;22;20019;-75
2023/01/25 04:56:11;;;;;;;60.60;27.08;;;0.10;99.90;;;;;;6275192;22;20022;-79
2023/01/25 04:58:37;;;;;;;60.35;27.45;;;0.10;99.90;;;;;;6276795;22;20012;-75
2023/01/25 05:01:03;;;;;;;58.42;26.30;;;0.10;99.90;;;;;;6274353;22;20091;-77
2023/01/25 05:03:29;;;;;;;60.05;27.27;;;0.10;99.90;;;;;;6275812;22;20016;-75
2023/01/25 05:05:56;;;;;;;62.53;28.92;;;0.10;99.90;;;;;;6276803;22;20398;-75
2023/01/25 05:08:21;;;;;;;58.83;27.25;;;0.10;99.90;;;;;;6274732;22;20022;-75
2023/01/25 05:10:47;;;;;;;64.25;29.48;;;0.10;99.90;;;;;;6274647;22;20011;-76
2023/01/25 05:13:12;;;;;;;59.85;27.85;;;0.10;99.90;;;;;;6276925;22;20322;-77
2023/01/25 05:15:38;;;;;;;58.95;28.05;;;0.10;99.90;;;;;;6274819;22;20016;-74
2023/01/25 05:18:04;;;;;;;67.55;30.42;;;0.10;99.90;;;;;;6276692;22;20023;-76
2023/01/25 05:20:29;;;;;;;64.25;28.48;;;0.10;99.90;;;;;;6274595;22;20437;-77
2023/01/25 05:22:55;;;;;;;64.50;28.10;;;0.10;99.90;;;;;;6276512;22;20086;-77
2023/01/25 05:28:06;;;;;;;59.30;26.38;;;0.10;99.90;;;;;;6276750;22;20070;-77
2023/01/25 05:30:32;;;;;;;63.30;28.15;;;0.00;99.90;;;;;;6276654;22;20011;-76
2023/01/25 05:32:57;;;;;;;66.20;29.27;;;0.00;99.90;;;;;;6276166;22;20338;-74
2023/01/25 05:35:23;;;;;;;64.18;29.42;;;0.00;99.90;;;;;;6274557;22;20175;-75
2023/01/25 05:37:49;;;;;;;60.15;26.52;;;0.00;99.90;;;;;;6274555;22;20012;-75
2023/01/25 05:40:14;;;;;;;65.90;29.17;;;0.00;99.90;;;;;;6274403;22;20015;-75
2023/01/25 05:42:40;;;;;;;63.90;27.95;;;-0.10;99.90;;;;;;6274442;22;20510;-75
2023/01/25 05:45:07;;;;;;;66.63;30.85;;;0.00;99.90;;;;;;6274469;22;20011;-75
2023/01/25 05:47:33;;;;;;;65.20;28.40;;;0.00;99.90;;;;;;6276494;22;20030;-76
2023/01/25 05:49:59;;;;;;;63.30;27.52;;;-0.10;99.90;;;;;;6274610;22;20461;-74
2023/01/25 05:52:24;;;;;;;64.22;29.67;;;0.00;99.90;;;;;;6276295;22;20043;-75
2023/01/25 05:54:50;;;;;;;66.75;27.77;;;0.00;99.90;;;;;;6276388;22;20012;-75
2023/01/25 05:57:15;;;;;;;66.40;29.80;;;0.00;99.90;;;;;;6274510;22;20397;-75
2023/01/25 05:59:42;;;;;;;70.43;31.08;;;0.00;99.90;;;;;;6276155;22;20007;-75
2023/01/25 06:02:07;;;;;;;65.55;28.73;;;0.00;99.90;;;;;;6276087;22;20095;-74
2023/01/25 06:04:33;;;;;;;63.90;28.30;;;0.00;99.90;;;;;;6275899;22;20039;-75
2023/01/25 06:06:58;;;;;;;66.28;28.50;;;0.00;99.90;;;;;;6274863;22;20061;-74
2023/01/25 06:09:25;;;;;;;70.13;32.42;;;0.00;99.90;;;;;;6274687;22;20016;-74
2023/01/25 06:11:51;;;;;;;67.93;29.50;;;0.00;99.90;;;;;;6277024;22;20012;-76
2023/01/25 06:14:17;;;;;;;69.20;30.02;;;0.00;99.90;;;;;;6278076;22;20046;-74
2023/01/25 06:16:42;;;;;;;69.97;30.77;;;0.00;99.90;;;;;;6278383;22;20012;-74
2023/01/25 06:19:08;;;;;;;69.25;31.48;;;0.00;99.90;;;;;;6276433;22;20011;-76
2023/01/25 06:21:35;;;;;;;67.82;29.90;;;0.00;99.90;;;;;;6276060;22;20019;-75
2023/01/25 06:24:02;;;;;;;68.63;31.77;;;0.00;99.90;;;;;;6276267;22;20014;-75
2023/01/25 06:26:28;;;;;;;67.05;29.67;;;0.00;99.90;;;;;;6277799;22;20012;-75
2023/01/25 06:28:53;;;;;;;70.63;29.95;;;-0.10;99.90;;;;;;6276188;22;20099;-75
2023/01/25 06:31:19;;;;;;;71.38;30.88;;;0.00;99.90;;;;;;6275995;22;20114;-77
2023/01/25 06:33:50;;;;;;;70.47;30.27;;;0.00;99.90;;;;;;6277659;22;20027;-75
2023/01/25 06:36:18;;;;;;;65.53;28.20;;;0.00;99.90;;;;;;6276243;22;20118;-76
2023/01/25 06:38:48;;;;;;;66.78;28.42;;;0.00;99.90;;;;;;6276008;22;20011;-75
2023/01/25 06:41:13;;;;;;;68.75;29.48;;;0.00;99.90;;;;;;6250345;22;20015;-75
2023/01/25 06:43:39;;;;;;;68.25;29.08;;;0.00;99.90;;;;;;6276322;22;20337;-75
2023/01/25 06:46:07;;;;;;;69.75;28.73;;;0.00;99.90;;;;;;6276429;22;20012;-76
2023/01/25 06:48:33;;;;;;;69.28;28.85;;;0.00;99.90;;;;;;6276449;22;20019;-78
2023/01/25 06:51:04;;;;;;;74.63;31.35;;;0.00;99.90;;;;;;6278103;22;20017;-79
2023/01/25 06:53:32;;;;;;;73.15;30.58;;;0.00;99.90;;;;;;6275096;22;20012;-78
2023/01/25 06:56:04;;;;;;;72.28;30.52;;;0.00;99.90;;;;;;6275528;22;20011;-76
2023/01/25 06:58:31;;;;;;;72.88;32.13;;;0.00;99.90;;;;;;6275875;22;20012;-77
2023/01/25 07:01:05;;;;;;;69.85;29.25;;;0.00;99.90;;;;;;6275608;22;20015;-77
2023/01/25 07:03:32;;;;;;;75.35;31.65;;;0.00;99.90;;;;;;6276052;22;20447;-76
2023/01/25 07:05:59;;;;;;;73.47;30.73;;;0.00;99.90;;;;;;6275907;22;20015;-75
2023/01/25 07:08:25;;;;;;;75.72;30.42;;;0.00;99.90;;;;;;6275958;22;20441;-77
2023/01/25 07:10:55;;;;;;;78.43;31.40;;;0.00;99.90;;;;;;6275863;22;20045;-78
2023/01/25 07:13:21;;;;;;;73.35;30.00;;;-0.10;99.90;;;;;;6275909;22;20022;-75
2023/01/25 07:15:58;;;;;;;73.97;30.85;;;0.00;99.90;;;;;;6275936;22;20039;-75
2023/01/25 07:18:25;;;;;;;74.82;30.00;;;0.00;99.90;;;;;;6250202;22;20015;-79
2023/01/25 07:20:51;;;;;;;69.07;28.10;;;0.00;99.90;;;;;;6276057;22;20019;-78
2023/01/25 07:23:16;;;;;;;72.20;28.98;;;0.00;99.90;;;;;;6275366;22;20333;-77
2023/01/25 07:25:46;;;;;;;70.97;28.92;;;0.00;99.90;;;;;;6275788;22;20473;-78
2023/01/25 07:28:13;;;;;;;73.43;28.85;;;-0.10;99.90;;;;;;6277427;22;20114;-77
2023/01/25 07:30:40;;;;;;;67.57;27.77;;;-0.10;99.90;;;;;;6277585;22;20011;-76
2023/01/25 07:33:05;;;;;;;71.32;29.35;;;-0.10;99.90;;;;;;6275555;22;20101;-75
2023/01/25 07:35:31;;;;;;;66.68;28.63;;;-0.10;99.90;;;;;;6275290;22;20047;-77
2023/01/25 07:37:57;;;;;;;68.43;27.42;;;-0.10;99.90;;;;;;6275394;22;20022;-76
2023/01/25 07:40:24;;;;;;;68.95;26.55;;;-0.10;99.90;;;;;;6275375;22;20090;-76
2023/01/25 07:42:53;;;;;;;71.05;27.45;;;-0.10;99.90;;;;;;6249661;22;20386;-78
2023/01/25 07:45:19;;;;;;;73.13;29.42;;;-0.10;99.90;;;;;;6250540;22;20015;-77
2023/01/25 07:47:45;;;;;;;66.22;27.48;;;-0.10;99.90;;;;;;6276789;22;20023;-78
2023/01/25 07:50:10;;;;;;;68.28;26.42;;;-0.20;99.90;;;;;;6277235;22;20011;-75
2023/01/25 07:52:36;;;;;;;68.57;26.70;;;-0.20;99.90;;;;;;6274969;22;20433;-77
2023/01/25 07:55:03;;;;;;;69.13;27.75;;;-0.20;99.90;;;;;;6277138;22;20007;-77
2023/01/25 07:57:29;;;;;;;73.85;28.50;;;-0.20;99.90;;;;;;6276674;22;20047;-75
2023/01/25 07:59:55;;;;;;;66.80;26.15;;;-0.20;99.90;;;;;;6276578;22;20015;-76
2023/01/25 08:02:21;;;;;;;70.72;28.20;;;-0.20;99.90;;;;;;6275199;22;20012;-77
2023/01/25 08:04:47;;;;;;;77.03;30.50;;;-0.20;99.90;;;;;;6276829;22;20042;-76
2023/01/25 08:07:13;;;;;;;70.22;30.35;;;-0.20;99.90;;;;;;6277222;22;20092;-75
2023/01/25 08:10:16;;;;;;;70.85;28.15;;;-0.20;99.90;;;;;;6276428;22;20008;-75
2023/01/25 08:12:48;;;;;;;72.90;29.90;;;-0.20;99.90;;;;;;6272605;22;20022;-75
2023/01/25 08:15:14;;;;;;;73.68;30.27;;;-0.20;99.90;;;;;;6274878;22;20016;-75
2023/01/25 08:17:39;;;;;;;72.35;28.35;;;-0.20;99.90;;;;;;6274590;22;20341;-75
2023/01/25 08:20:06;;;;;;;66.00;25.73;;;-0.20;99.90;;;;;;6249416;22;20055;-75
2023/01/25 08:22:32;;;;;;;71.53;28.13;;;-0.20;99.90;;;;;;6274455;22;20176;-76
2023/01/25 08:24:59;;;;;;;70.80;28.13;;;-0.20;99.90;;;;;;6276698;22;20016;-75
2023/01/25 08:27:27;;;;;;;70.68;28.63;;;-0.20;99.90;;;;;;6276815;22;20078;-74
2023/01/25 08:29:53;;;;;;;71.65;29.92;;;-0.20;99.90;;;;;;6274793;22;20385;-76
2023/01/25 08:32:19;;;;;;;71.97;28.08;;;-0.20;99.90;;;;;;6274637;22;20441;-75
2023/01/25 08:34:45;;;;;;;73.43;28.17;;;-0.20;99.90;;;;;;6276807;22;20012;-75
2023/01/25 08:37:11;;;;;;;75.88;29.92;;;-0.20;99.90;;;;;;6276269;22;20007;-78
2023/01/25 08:39:37;;;;;;;73.45;29.00;;;-0.20;99.90;;;;;;6274364;22;20011;-76
2023/01/25 08:42:02;;;;;;;76.03;30.48;;;-0.20;99.90;;;;;;6276302;22;20071;-74
2023/01/25 08:44:28;;;;;;;73.85;27.75;;;-0.20;99.90;;;;;;6274618;22;20008;-75
2023/01/25 08:46:53;;;;;;;70.22;27.70;;;-0.20;99.90;;;;;;6276992;22;20011;-74
2023/01/25 08:49:19;;;;;;;76.88;29.67;;;-0.20;99.90;;;;;;6274682;22;20433;-75
2023/01/25 08:51:46;;;;;;;73.72;26.10;;;-0.10;99.90;;;;;;6249235;22;20091;-76
2023/01/25 08:54:11;;;;;;;66.82;26.00;;;-0.10;99.90;;;;;;6274741;22;20342;-75
2023/01/25 08:56:39;;;;;;;75.35;29.88;;;-0.10;99.90;;;;;;6276575;22;20182;-76
2023/01/25 08:59:05;;;;;;;63.45;25.38;;;-0.10;99.90;;;;;;6276831;22;20020;-74
2023/01/25 09:01:30;;;;;;;67.75;26.73;;;-0.10;99.90;;;;;;6274673;22;20089;-75
2023/01/25 09:03:56;;;;;;;70.13;25.70;;;-0.10;99.90;;;;;;6276385;22;20012;-76
2023/01/25 09:06:22;;;;;;;69.80;27.27;;;-0.10;99.90;;;;;;6277076;22;20074;-77
2023/01/25 09:08:48;;;;;;;68.93;25.67;;;-0.10;99.90;;;;;;6274777;22;20054;-76
2023/01/25 09:11:16;;;;;;;69.78;26.05;;;-0.10;99.90;;;;;;6276394;22;20011;-77
2023/01/25 09:13:42;;;;;;;71.85;26.85;;;-0.10;99.90;;;;;;6276853;22;20007;-77
2023/01/25 09:16:14;;;;;;;67.82;25.70;;;-0.10;99.90;;;;;;6274473;22;20012;-77
2023/01/25 09:18:42;;;;;;;61.55;20.55;;;-0.10;99.90;;;;;;6274834;22;20141;-78
2023/01/25 09:21:13;;;;;;;75.43;27.52;;;-0.10;99.90;;;;;;6274613;22;20023;-77
2023/01/25 09:23:40;;;;;;;74.78;28.63;;;-0.10;99.90;;;;;;6276634;22;20053;-77
2023/01/25 09:26:09;;;;;;;75.85;27.58;;;-0.10;99.90;;;;;;6276841;22;20015;-77
2023/01/25 09:28:34;;;;;;;77.18;27.63;;;0.00;99.90;;;;;;6249432;22;20023;-77
2023/01/25 09:31:03;;;;;;;76.20;27.60;;;0.00;99.90;;;;;;6276864;22;20008;-76
2023/01/25 09:33:31;;;;;;;70.93;27.75;;;0.00;99.90;;;;;;6275271;22;20015;-77
2023/01/25 09:35:57;;;;;;;81.82;28.95;;;0.00;99.90;;;;;;6276220;22;20011;-77
2023/01/25 09:38:23;;;;;;;82.90;31.02;;;0.00;99.90;;;;;;6274521;22;20051;-76
2023/01/25 09:41:01;;;;;;;71.22;27.13;;;0.00;99.90;;;;;;6274448;22;20019;-77
2023/01/25 09:43:47;;;;;;;62.65;24.05;;;0.10;99.90;;;;;;6274768;22;20016;-77
2023/01/25 09:46:51;;;;;;;72.53;26.40;;;0.10;99.90;;;;;;6275089;22;20373;-77
2023/01/25 09:49:36;;;;;;;74.97;27.55;;;0.00;99.90;;;;;;6276703;22;20011;-77
2023/01/25 09:52:23;;;;;;;76.68;27.00;;;0.10;99.90;;;;;;6276714;22;20456;-76
2023/01/25 09:54:49;;;;;;;69.20;25.17;;;0.10;99.90;;;;;;6277128;22;20038;-76
2023/01/25 09:57:20;;;;;;;73.80;27.75;;;0.10;99.90;;;;;;6277656;22;20012;-76
2023/01/25 09:59:49;;;;;;;77.97;28.88;;;0.10;99.90;;;;;;6278271;22;20282;-76
2023/01/25 10:02:51;;;;;;;72.82;26.63;;;0.10;99.90;;;;;;6277008;22;20408;-77
2023/01/25 10:05:24;;;;;;;69.15;25.50;;;0.10;99.90;;;;;;6279321;22;20008;-75
2023/01/25 10:08:24;;;;;;;65.72;26.17;;;0.10;99.90;;;;;;6279181;22;20039;-75
2023/01/25 10:10:59;;;;;;;72.38;26.52;;;0.10;99.90;;;;;;6278942;22;20007;-75
2023/01/25 10:13:30;;;;;;;74.32;26.95;;;0.10;99.90;;;;;;6277373;22;20027;-77
2023/01/25 10:16:21;;;;;;;77.30;28.42;;;0.10;99.90;;;;;;6278368;22;20083;-77
2023/01/25 10:18:56;;;;;;;82.55;28.70;;;0.20;99.90;;;;;;6255800;22;20040;-76
2023/01/25 10:21:36;;;;;;;78.85;28.52;;;0.20;99.90;;;;;;6278476;22;20012;-76
2023/01/25 10:24:30;;;;;;;86.72;28.70;;;0.20;99.90;;;;;;6251210;22;20012;-78
2023/01/25 10:27:01;;;;;;;81.80;28.98;;;0.20;99.90;;;;;;6276578;22;20008;-78
2023/01/25 10:29:31;;;;;;;74.72;26.02;;;0.20;99.90;;;;;;6278457;22;20015;-76
2023/01/25 10:32:16;;;;;;;81.20;28.80;;;0.20;99.90;;;;;;6276328;22;20012;-78
2023/01/25 10:34:53;;;;;;;79.78;28.08;;;0.30;99.90;;;;;;6276576;22;20413;-77
2023/01/25 10:37:23;;;;;;;85.00;28.08;;;0.30;99.90;;;;;;6276814;22;20103;-77
2023/01/25 10:39:53;;;;;;;82.55;29.70;;;0.30;99.90;;;;;;6276710;22;20015;-76
2023/01/25 10:42:21;;;;;;;85.85;28.23;;;0.30;99.90;;;;;;6276400;22;20042;-77
2023/01/25 10:44:46;;;;;;;82.60;28.45;;;0.40;99.90;;;;;;6276252;22;20008;-77
2023/01/25 10:47:35;;;;;;;82.82;26.63;;;0.40;99.90;;;;;;6280789;22;20012;-73
2023/01/25 10:50:03;;;;;;;77.97;25.48;;;0.40;99.90;;;;;;6288305;22;20490;-74
2023/01/25 10:52:31;;;;;;;83.75;29.42;;;0.40;99.90;;;;;;6282744;22;20023;-76
2023/01/25 10:55:16;;;;;;;78.70;27.05;;;0.50;99.90;;;;;;6251316;22;20112;-78
2023/01/25 10:57:52;;;;;;;79.53;26.80;;;0.50;99.90;;;;;;6276499;22;20016;-77
2023/01/25 11:00:27;;;;;;;83.38;28.90;;;0.50;99.90;;;;;;6277379;22;20250;-77
2023/01/25 11:02:53;;;;;;;81.15;28.17;;;0.50;99.90;;;;;;6276573;22;20016;-77
2023/01/25 11:05:35;;;;;;;85.13;29.65;;;0.50;99.90;;;;;;6276255;22;20019;-78
2023/01/25 11:08:23;;;;;;;74.88;25.90;;;0.50;99.90;;;;;;6278045;22;20015;-76
2023/01/25 11:10:50;;;;;;;67.05;24.10;;;0.50;99.90;;;;;;6278540;22;20107;-76
2023/01/25 11:13:15;;;;;;;81.82;28.20;;;0.50;99.90;;;;;;6277979;22;20008;-77
2023/01/25 11:15:43;;;;;;;70.65;25.45;;;0.50;99.90;;;;;;6277990;22;20425;-76
2023/01/25 11:18:19;;;;;;;71.18;25.42;;;0.40;99.90;;;;;;6276339;22;20011;-76
2023/01/25 11:20:45;;;;;;;75.47;24.73;;;0.50;99.90;;;;;;6276854;22;20054;-77
2023/01/25 11:23:23;;;;;;;71.43;25.08;;;0.50;99.90;;;;;;6275847;22;20016;-76
2023/01/25 11:25:49;;;;;;;78.65;25.38;;;0.50;99.90;;;;;;6277368;22;20008;-77
2023/01/25 11:28:24;;;;;;;80.60;25.77;;;0.50;99.90;;;;;;6275867;22;20008;-77
2023/01/25 11:30:51;;;;;;;84.63;26.88;;;0.60;99.90;;;;;;6275780;22;20086;-76
2023/01/25 11:33:19;;;;;;;73.28;25.13;;;0.60;99.90;;;;;;6275867;22;20011;-76
2023/01/25 11:35:57;;;;;;;68.90;24.13;;;0.60;99.90;;;;;;6250888;22;20020;-77
2023/01/25 11:38:23;;;;;;;73.20;23.77;;;0.60;99.90;;;;;;6277432;22;20310;-75
2023/01/25 11:41:07;;;;;;;73.68;23.83;;;0.70;99.90;;;;;;6277332;22;20015;-77
2023/01/25 11:44:00;;;;;;;65.38;21.80;;;0.70;99.90;;;;;;6276980;22;20082;-78
2023/01/25 11:46:32;;;;;;;80.43;24.85;;;0.70;99.90;;;;;;6275918;22;20371;-76
2023/01/25 11:49:26;;;;;;;79.03;25.80;;;0.70;99.90;;;;;;6250335;22;20019;-76
2023/01/25 11:52:27;;;;;;;83.30;28.73;;;0.70;99.90;;;;;;6277744;22;20031;-77
2023/01/25 11:55:20;;;;;;;86.78;26.80;;;0.70;99.90;;;;;;6193180;22;20502;-76
2023/01/25 11:58:04;;;;;;;83.32;26.25;;;0.70;99.90;;;;;;6249745;22;20012;-77
2023/01/25 12:00:46;;;;;;;79.70;25.88;;;0.70;99.90;;;;;;6277114;22;20023;-76
2023/01/25 12:03:39;;;;;;;77.93;24.63;;;0.70;99.90;;;;;;6275778;22;20493;-77
2023/01/25 12:06:24;;;;;;;87.22;26.48;;;0.70;99.90;;;;;;6275691;22;20011;-76
2023/01/25 12:09:08;;;;;;;89.00;27.00;;;0.70;99.90;;;;;;6275615;22;20351;-77
2023/01/25 12:11:46;;;;;;;81.30;26.48;;;0.70;99.90;;;;;;6275578;22;20041;-78
2023/01/25 12:14:26;;;;;;;85.32;25.38;;;0.70;99.90;;;;;;6275733;22;20043;-75
2023/01/25 12:17:04;;;;;;;74.28;23.88;;;0.70;99.90;;;;;;6275250;22;20093;-77
2023/01/25 12:19:30;;;;;;;85.30;26.83;;;0.80;99.90;;;;;;6276979;22;20047;-77
2023/01/25 12:22:28;;;;;;;81.90;25.45;;;0.70;99.90;;;;;;6249377;22;20022;-77
2023/01/25 12:25:22;;;;;;;81.60;27.42;;;0.80;99.90;;;;;;6265780;22;20043;-77
2023/01/25 12:28:02;;;;;;;83.20;26.45;;;0.80;99.90;;;;;;6275030;22;20012;-76
2023/01/25 12:30:41;;;;;;;88.97;27.88;;;0.70;99.90;;;;;;6276477;22;20018;-77
2023/01/25 12:33:32;;;;;;;93.82;27.48;;;0.70;99.90;;;;;;6275114;22;20019;-78
2023/01/25 12:36:11;;;;;;;88.53;28.60;;;0.70;99.90;;;;;;6274928;22;20023;-77
2023/01/25 12:39:07;;;;;;;89.47;27.52;;;0.70;99.90;;;;;;6275265;22;20290;-78
2023/01/25 12:41:44;;;;;;;;;;;0.70;99.90;;;;;;6277234;22;20015;-77
2023/01/25 12:44:12;;;;;;;;;;;0.60;99.90;;;;;;6275584;22;19965;-76
2023/01/25 12:46:50;;;;;;;91.00;28.63;;;0.60;99.90;;;;;;6274697;22;19960;-78
2023/01/25 12:49:49;;;;;;;87.85;28.35;;;0.60;99.90;;;;;;6274879;22;20054;-78
2023/01/25 12:52:27;;;;;;;95.78;30.98;;;0.60;99.90;;;;;;6276585;22;20026;-77
2023/01/25 12:54:59;;;;;;;108.97;32.15;;;0.60;99.90;;;;;;6274738;22;20337;-76
2023/01/25 12:57:41;;;;;;;82.70;27.33;;;0.60;99.90;;;;;;6274734;22;20019;-79
2023/01/25 13:00:24;;;;;;;102.75;34.15;;;0.60;99.90;;;;;;6275020;22;20020;-75
2023/01/25 13:03:02;;;;;;;92.72;29.98;;;0.60;99.90;;;;;;6277043;22;20075;-77
2023/01/25 13:05:46;;;;;;;95.53;31.77;;;0.50;99.90;;;;;;6249658;22;20016;-77
2023/01/25 13:08:43;;;;;;;100.72;32.17;;;0.60;99.90;;;;;;6276552;22;20014;-79
2023/01/25 13:11:37;;;;;;;95.82;30.75;;;0.60;99.90;;;;;;6276458;22;20019;-77
2023/01/25 13:14:15;;;;;;;95.15;30.92;;;0.60;99.90;;;;;;6276664;22;20039;-77
2023/01/25 13:16:50;;;;;;;92.43;30.92;;;0.60;99.90;;;;;;6274974;22;20015;-77
2023/01/25 13:19:43;;;;;;;87.82;28.08;;;0.60;99.90;;;;;;6277051;22;20348;-78
2023/01/25 13:22:11;;;;;;;82.05;28.20;;;0.60;99.90;;;;;;6275509;22;20031;-77
2023/01/25 13:24:58;;;;;;;83.32;29.20;;;0.60;99.90;;;;;;6276726;22;20003;-77
2023/01/25 13:27:26;;;;;;;81.60;30.52;;;0.60;99.90;;;;;;6276616;22;20011;-77
2023/01/25 13:30:15;;;;;;;83.20;26.85;;;0.60;99.90;;;;;;6276722;22;20510;-77
2023/01/25 13:32:44;;;;;;;92.05;27.98;;;0.60;99.90;;;;;;6257081;22;20016;-78
2023/01/25 13:35:29;;;;;;;81.70;26.30;;;0.50;99.90;;;;;;6277215;22;20073;-79
2023/01/25 13:38:23;;;;;;;84.40;28.23;;;0.50;99.90;;;;;;6276993;22;20023;-76
2023/01/25 13:41:11;;;;;;;81.95;26.30;;;0.50;99.90;;;;;;6277397;22;20018;-76
2023/01/25 13:43:38;;;;;;;84.95;29.50;;;0.50;99.90;;;;;;6277009;22;20444;-76
2023/01/25 13:46:07;;;;;;;85.95;25.63;;;0.50;99.90;;;;;;6278826;22;20015;-77
2023/01/25 13:48:35;;;;;;;77.85;25.73;;;0.40;99.90;;;;;;6278886;22;20043;-78
2023/01/25 13:51:06;;;;;;;89.97;28.65;;;0.50;99.90;;;;;;6276721;22;20042;-78
2023/01/25 13:53:34;;;;;;;81.30;27.50;;;0.50;99.90;;;;;;6279007;22;20390;-77
2023/01/25 13:56:00;;;;;;;83.50;26.00;;;0.40;99.90;;;;;;6276684;22;20015;-78
2023/01/25 13:58:32;;;;;;;89.78;29.52;;;0.40;99.90;;;;;;6276535;22;20310;-76
2023/01/25 14:01:07;;;;;;;81.93;25.33;;;0.40;99.90;;;;;;6276174;22;20011;-78
2023/01/25 14:03:42;;;;;;;80.30;26.40;;;0.40;99.90;;;;;;6276240;22;20371;-78
2023/01/25 14:06:19;;;;;;;91.47;27.25;;;0.40;99.90;;;;;;6278491;22;20091;-77
2023/01/25 14:08:46;;;;;;;87.57;27.30;;;0.40;99.90;;;;;;6276388;22;20011;-78
2023/01/25 14:11:23;;;;;;;86.63;26.88;;;0.30;99.90;;;;;;6276408;22;20053;-77
2023/01/25 14:14:15;;;;;;;88.20;26.50;;;0.30;99.90;;;;;;6278194;22;20010;-78
2023/01/25 14:16:41;;;;;;;85.28;26.30;;;0.40;99.90;;;;;;6276156;22;20019;-76
2023/01/25 14:19:24;;;;;;;92.03;27.00;;;0.40;99.90;;;;;;6276184;22;20012;-77
2023/01/25 14:22:11;;;;;;;96.22;27.58;;;0.40;99.90;;;;;;6276179;22;20016;-77
2023/01/25 14:24:37;;;;;;;94.35;29.50;;;0.30;99.90;;;;;;6278010;22;20456;-76
2023/01/25 14:27:04;;;;;;;97.80;27.98;;;0.30;99.90;;;;;;6276095;22;20008;-78
2023/01/25 14:29:33;;;;;;;101.90;28.65;;;0.30;99.90;;;;;;6277871;22;20003;-76
2023/01/25 14:31:59;;;;;;;100.63;30.25;;;0.30;99.90;;;;;;6275904;22;20027;-77
2023/01/25 14:34:25;;;;;;;96.13;27.95;;;0.30;99.90;;;;;;6275917;22;20020;-76
2023/01/25 14:37:17;;;;;;;103.63;28.85;;;0.30;99.90;;;;;;6277617;22;20051;-75
2023/01/25 14:39:45;;;;;;;100.15;28.83;;;0.30;99.90;;;;;;6276215;22;20015;-79
2023/01/25 14:42:11;;;;;;;103.65;27.95;;;0.30;99.90;;;;;;6276414;22;20022;-77
2023/01/25 14:44:37;;;;;;;106.38;29.80;;;0.30;99.90;;;;;;6276090;22;20008;-81
2023/01/25 14:47:27;;;;;;;105.22;28.55;;;0.30;99.90;;;;;;6275568;22;20364;-78
2023/01/25 14:49:52;;;;;;;103.20;29.90;;;0.30;99.90;;;;;;6273267;22;20011;-77
2023/01/25 14:52:23;;;;;;;96.00;28.92;;;0.30;99.90;;;;;;6273002;22;20015;-75
2023/01/25 14:54:58;;;;;;;100.05;29.92;;;0.30;99.90;;;;;;6273372;22;20453;-77
2023/01/25 14:57:31;;;;;;;112.88;29.52;;;0.30;99.90;;;;;;6274270;22;20022;-76
2023/01/25 14:59:58;;;;;;;93.90;28.98;;;0.30;99.90;;;;;;6275001;22;20329;-78
2023/01/25 15:02:34;;;;;;;107.70;31.23;;;0.30;99.90;;;;;;6277309;22;20015;-77
2023/01/25 15:05:05;;;;;;;101.40;31.05;;;0.20;99.90;;;;;;6276174;22;20380;-77
2023/01/25 15:07:35;;;;;;;107.05;30.17;;;0.20;99.90;;;;;;6276177;22;20038;-77
2023/01/25 15:10:16;;;;;;;102.55;28.05;;;0.20;99.90;;;;;;6250712;22;20370;-76
2023/01/25 15:13:17;;;;;;;108.30;28.58;;;0.20;99.90;;;;;;6276081;22;20082;-78
2023/01/25 15:15:58;;;;;;;108.85;29.73;;;0.10;99.90;;;;;;6230618;22;20378;-76
2023/01/25 15:18:47;;;;;;;126.20;30.33;;;0.10;99.90;;;;;;6277273;22;20020;-76
2023/01/25 15:21:23;;;;;;;104.35;29.00;;;0.10;99.90;;;;;;6256257;22;20051;-75
2023/01/25 15:23:49;;;;;;;102.18;26.90;;;0.10;99.90;;;;;;6276116;22;20086;-79
2023/01/25 15:26:19;;;;;;;111.40;28.92;;;0.10;99.90;;;;;;6276298;22;20374;-78
2023/01/25 15:28:45;;;;;;;116.32;30.98;;;0.10;99.90;;;;;;6277678;22;20016;-75
2023/01/25 15:31:20;;;;;;;111.03;29.42;;;0.10;99.90;;;;;;6277422;22;20085;-80
2023/01/25 15:33:46;;;;;;;100.43;29.95;;;0.10;99.90;;;;;;6275465;22;20023;-77
2023/01/25 15:36:13;;;;;;;117.28;31.73;;;0.10;99.90;;;;;;6281729;22;20016;-76
2023/01/25 15:38:40;;;;;;;98.93;30.60;;;0.10;99.90;;;;;;6285998;22;20012;-75
2023/01/25 15:41:06;;;;;;;123.22;34.90;;;0.10;99.90;;;;;;6278124;22;20012;-76
2023/01/25 15:43:32;;;;;;;117.13;32.88;;;0.10;99.90;;;;;;6276033;22;20026;-76
2023/01/25 15:45:59;;;;;;;130.32;34.83;;;0.10;99.90;;;;;;6275536;22;20011;-76
2023/01/25 15:48:41;;;;;;;135.55;40.83;;;0.10;99.90;;;;;;6277573;22;20080;-77
2023/01/25 15:51:06;;;;;;;120.80;33.17;;;0.10;99.90;;;;;;6249962;22;20070;-76
2023/01/25 15:53:32;;;;;;;132.25;37.85;;;0.10;99.90;;;;;;6277230;22;20437;-77
2023/01/25 15:56:05;;;;;;;129.68;36.45;;;0.10;99.90;;;;;;6275394;22;20421;-76
2023/01/25 15:58:37;;;;;;;132.00;36.17;;;0.20;99.90;;;;;;6277659;22;20039;-77
2023/01/25 16:01:03;;;;;;;122.93;35.05;;;0.10;99.90;;;;;;6276532;22;20008;-75
2023/01/25 16:03:29;;;;;;;119.03;33.38;;;0.10;99.90;;;;;;6276799;22;20011;-77
2023/01/25 16:06:02;;;;;;;130.98;34.53;;;0.10;99.90;;;;;;6275230;22;20019;-76
2023/01/25 16:08:28;;;;;;;133.57;37.60;;;0.10;99.90;;;;;;6275326;22;20015;-78
2023/01/25 16:10:54;;;;;;;136.45;38.63;;;0.10;99.90;;;;;;6275673;22;20441;-76
2023/01/25 16:13:20;;;;;;;120.93;33.70;;;0.10;99.90;;;;;;6249970;22;20019;-77
2023/01/25 16:15:50;;;;;;;138.35;38.83;;;0.10;99.90;;;;;;6275334;22;20023;-77
2023/01/25 16:18:16;;;;;;;123.15;35.67;;;0.10;99.90;;;;;;6275699;22;20012;-77
2023/01/25 16:20:42;;;;;;;130.45;36.90;;;0.10;99.90;;;;;;6275183;22;20020;-75
2023/01/25 16:23:10;;;;;;;135.40;39.30;;;0.10;99.90;;;;;;6277088;22;20113;-77
2023/01/25 16:25:37;;;;;;;130.93;37.65;;;0.10;99.90;;;;;;6249660;22;20015;-75
2023/01/25 16:28:03;;;;;;;145.75;40.33;;;0.10;99.90;;;;;;6274956;22;20026;-76
2023/01/25 16:30:32;;;;;;;142.13;38.13;;;0.10;99.90;;;;;;6276347;22;20012;-75
2023/01/25 16:32:58;;;;;;;147.82;37.60;;;0.10;99.90;;;;;;6274921;22;20498;-76
2023/01/25 16:35:24;;;;;;;146.60;37.78;;;0.10;99.90;;;;;;6275291;22;20345;-77
2023/01/25 16:37:51;;;;;;;148.55;37.40;;;0.10;99.90;;;;;;6277054;22;20012;-77
2023/01/25 16:40:30;;;;;;;136.32;35.67;;;0.10;99.90;;;;;;6276817;22;20004;-76
2023/01/25 16:42:56;;;;;;;138.75;35.88;;;0.10;99.90;;;;;;6274606;22;20105;-77
2023/01/25 16:45:23;;;;;;;138.95;34.33;;;0.10;99.90;;;;;;6274945;22;20407;-75
2023/01/25 16:47:49;;;;;;;138.25;36.97;;;0.10;99.90;;;;;;6249910;22;20012;-75
2023/01/25 16:50:18;;;;;;;147.32;35.67;;;0.20;99.90;;;;;;6275316;22;20375;-76
2023/01/25 16:52:44;;;;;;;128.75;34.22;;;0.20;99.90;;;;;;6276661;22;20474;-77
2023/01/25 16:55:12;;;;;;;139.15;36.10;;;0.10;99.90;;;;;;6250186;22;20022;-76
2023/01/25 16:57:39;;;;;;;125.25;34.67;;;0.10;99.90;;;;;;6274538;22;20019;-77
2023/01/25 17:00:09;;;;;;;139.60;35.63;;;0.10;99.90;;;;;;6249934;22;20349;-77